createdAt,value
2022-11-23T09:06:29.345Z,99747.34
2022-11-23T09:21:36.023Z,99763.31
2022-11-23T09:36:39.862Z,99751.23
2022-11-23T09:51:45.146Z,99745.84
2022-11-23T10:06:58.262Z,99740.55
2022-11-23T10:22:14.219Z,99746.61
2022-11-23T10:37:18.912Z,99744.17
2022-11-23T10:52:50.677Z,99739.98
2022-11-23T11:08:00.722Z,99733.04
2022-11-23T11:23:20.624Z,99718.97
2022-11-23T11:38:33.295Z,99707.11
2022-11-23T11:53:59.404Z,99703.98
2022-11-23T12:09:19.203Z,99689.81
2022-11-23T12:24:50.827Z,99682.94
2022-11-23T12:40:14.564Z,99684.67
2022-11-23T12:55:48.754Z,99673.32
2022-11-23T13:11:14.567Z,99655.13
2022-11-23T13:26:21.220Z,99681.44
2022-11-23T13:41:39.976Z,99700.61
2022-11-23T13:56:45.050Z,99714.77
2022-11-23T14:24:02.712Z,99727.20
2022-11-23T14:39:18.533Z,99737.70
2022-11-23T14:54:22.432Z,99739.14
2022-11-23T15:10:05.484Z,99737.82
2022-11-23T15:25:13.812Z,99753.20
2022-11-23T15:40:19.190Z,99760.61
2022-11-23T15:55:23.817Z,99753.55
2022-11-23T16:10:29.826Z,99741.98
2022-11-23T16:25:35.178Z,99744.66
2022-11-23T16:40:45.047Z,99749.79
2022-11-23T16:55:53.849Z,99736.77
2022-11-23T17:10:57.349Z,99753.16
2022-11-23T17:26:00.765Z,99756.52
2022-11-23T17:41:04.714Z,99767.92
2022-11-23T17:56:17.247Z,99768.80
2022-11-23T18:11:22.280Z,99774.08
2022-11-23T18:26:27.355Z,99781.50
2022-11-23T18:41:31.413Z,99780.02
2022-11-23T18:56:35.520Z,99792.90
2022-11-23T19:11:38.949Z,99792.52
2022-11-23T19:26:42.170Z,99787.29
2022-11-23T19:41:45.959Z,99781.11
2022-11-23T19:56:51.145Z,99776.23
2022-11-23T20:11:55.032Z,99782.70
2022-11-23T20:26:59.389Z,99800.42
2022-11-23T20:42:02.822Z,99803.34
2022-11-23T20:57:06.884Z,99801.49
2022-11-23T21:12:29.730Z,99799.24
2022-11-23T21:27:33.525Z,99794.91
2022-11-23T21:42:36.732Z,99809.16
2022-11-23T21:57:40.167Z,99820.45
2022-11-23T22:12:43.930Z,99826.64
2022-11-23T22:27:47.241Z,99836.19
2022-11-23T22:42:50.646Z,99849.91
2022-11-23T22:57:54.018Z,99845.86
2022-11-23T23:12:57.441Z,99853.06
2022-11-23T23:28:01.315Z,99853.67
2022-11-23T23:43:04.813Z,99842.08
2022-11-23T23:58:07.980Z,99850.27
